This is the latest recevied weather packets stored in our database for station/object DO7ZT-13. If no packets are shown the sender has not sent any weather packets the latest 10 day(s).
| Time | Temp. | Humidity | Pressure | Rain* | Wind** | Luminosity | Snow |
|---|---|---|---|---|---|---|---|
| 1777043128 | 8.89° C | 74% | 1017.9 hPa | 0 mm | 0.89 m/s, 264° | - | - |
| 1777042816 | 8.89° C | 73% | 1018.2 hPa | 0 mm | 0.89 m/s, 306° | - | - |
| 1777042503 | 8.89° C | 74% | 1018.2 hPa | 0 mm | 0.45 m/s, 264° | - | - |
| 1777042216 | 8.89° C | 74% | 1018.2 hPa | 0 mm | 0.89 m/s, 252° | - | - |
| 1777041903 | 8.89° C | 74% | 1018.3 hPa | 0 mm | 1.34 m/s, 294° | - | - |
| 1777041616 | 7.78° C | 76% | 1018.3 hPa | 0 mm | 0.89 m/s, 318° | - | - |
| 1777041303 | 7.78° C | 76% | 1018.3 hPa | 0 mm | 0.45 m/s, 264° | - | - |
| 1777041016 | 7.78° C | 76% | 1018.5 hPa | 0 mm | 0.45 m/s, 270° | - | - |
| 1777040703 | 7.78° C | 76% | 1018.5 hPa | 0 mm | 0.89 m/s, 252° | - | - |
| 1777040416 | 7.78° C | 76% | 1018.5 hPa | 0 mm | 0.89 m/s, 252° | - | - |
| 1777040103 | 7.78° C | 76% | 1018.7 hPa | 0 mm | 1.34 m/s, 258° | - | - |
| 1777039816 | 7.78° C | 77% | 1018.7 hPa | 0 mm | 1.34 m/s, 258° | - | - |
| 1777039503 | 7.78° C | 77% | 1018.7 hPa | 0 mm | 1.34 m/s, 264° | - | - |
| 1777039216 | 7.78° C | 76% | 1018.6 hPa | 0 mm | 0.89 m/s, 258° | - | - |
| 1777038903 | 7.78° C | 77% | 1018.6 hPa | 0 mm | 0.89 m/s, 228° | - | - |
| 1777038616 | 7.78° C | 78% | 1018.6 hPa | 0 mm | 0.89 m/s, 264° | - | - |
| 1777038303 | 7.78° C | 77% | 1018.7 hPa | 0 mm | 0.45 m/s, 258° | - | - |
| 1777038016 | 7.78° C | 77% | 1018.7 hPa | 0 mm | 0.89 m/s, 256° | - | - |
| 1777037703 | 7.78° C | 77% | 1018.7 hPa | 0 mm | 1.34 m/s, 246° | - | - |
| 1777037416 | 7.78° C | 77% | 1018.8 hPa | 0 mm | 0.89 m/s, 262° | - | - |
| 1777037103 | 7.78° C | 77% | 1018.8 hPa | 0 mm | 0.89 m/s, 240° | - | - |
| 1777036816 | 7.78° C | 77% | 1018.8 hPa | 0 mm | 0.89 m/s, 246° | - | - |
| 1777036503 | 7.78° C | 76% | 1019 hPa | 0 mm | 1.34 m/s, 312° | - | - |
| 1777036216 | 7.78° C | 77% | 1019 hPa | 0 mm | 0.89 m/s, 282° | - | - |
| 1777035903 | 7.78° C | 77% | 1019 hPa | 0 mm | 0.89 m/s, 276° | - | - |
* Rain latest hour (hover to see other rain measurements)
** Current wind speed in m/s (hover to see current wind gust speed)